sensor_id;sensor_type;location;lat;lon;timestamp;P1;durP1;ratioP1;P2;durP2;ratioP2
11548;SDS011;61444;59.472;18.306;2023-07-28T00:01:59;4.47;;;2.57;;
11548;SDS011;61444;59.472;18.306;2023-07-28T00:04:09;3.63;;;2.57;;
11548;SDS011;61444;59.472;18.306;2023-07-28T00:06:21;4.27;;;3.07;;
11548;SDS011;61444;59.472;18.306;2023-07-28T00:08:30;6.50;;;2.70;;
11548;SDS011;61444;59.472;18.306;2023-07-28T00:10:39;4.23;;;2.90;;
11548;SDS011;61444;59.472;18.306;2023-07-28T00:12:48;4.73;;;2.57;;
11548;SDS011;61444;59.472;18.306;2023-07-28T00:14:57;3.57;;;2.50;;
11548;SDS011;61444;59.472;18.306;2023-07-28T00:17:09;4.10;;;2.43;;
11548;SDS011;61444;59.472;18.306;2023-07-28T00:19:18;3.20;;;2.40;;
11548;SDS011;61444;59.472;18.306;2023-07-28T00:21:27;3.90;;;2.83;;
11548;SDS011;61444;59.472;18.306;2023-07-28T00:23:36;3.47;;;2.67;;
11548;SDS011;61444;59.472;18.306;2023-07-28T00:25:48;2.87;;;2.60;;
11548;SDS011;61444;59.472;18.306;2023-07-28T00:27:57;5.20;;;2.80;;
11548;SDS011;61444;59.472;18.306;2023-07-28T00:30:06;5.90;;;2.70;;
11548;SDS011;61444;59.472;18.306;2023-07-28T00:32:17;4.03;;;2.57;;
11548;SDS011;61444;59.472;18.306;2023-07-28T00:34:26;7.27;;;2.77;;
11548;SDS011;61444;59.472;18.306;2023-07-28T00:36:35;5.93;;;2.70;;
11548;SDS011;61444;59.472;18.306;2023-07-28T00:38:45;4.70;;;2.60;;
11548;SDS011;61444;59.472;18.306;2023-07-28T00:40:54;4.33;;;2.50;;
11548;SDS011;61444;59.472;18.306;2023-07-28T00:43:01;4.67;;;2.60;;
11548;SDS011;61444;59.472;18.306;2023-07-28T00:45:11;3.43;;;2.43;;
11548;SDS011;61444;59.472;18.306;2023-07-28T00:47:23;4.73;;;2.90;;
11548;SDS011;61444;59.472;18.306;2023-07-28T00:49:33;4.30;;;2.90;;
11548;SDS011;61444;59.472;18.306;2023-07-28T00:51:42;4.17;;;2.57;;
11548;SDS011;61444;59.472;18.306;2023-07-28T00:53:51;4.20;;;2.73;;
11548;SDS011;61444;59.472;18.306;2023-07-28T00:56:00;4.33;;;2.40;;
11548;SDS011;61444;59.472;18.306;2023-07-28T00:58:09;3.30;;;2.40;;
11548;SDS011;61444;59.472;18.306;2023-07-28T01:00:18;4.43;;;2.57;;
11548;SDS011;61444;59.472;18.306;2023-07-28T01:02:28;5.40;;;2.60;;
11548;SDS011;61444;59.472;18.306;2023-07-28T01:04:37;3.70;;;2.80;;
11548;SDS011;61444;59.472;18.306;2023-07-28T01:06:47;4.40;;;2.70;;
11548;SDS011;61444;59.472;18.306;2023-07-28T01:09:01;4.97;;;2.70;;
11548;SDS011;61444;59.472;18.306;2023-07-28T01:11:10;4.27;;;2.70;;
11548;SDS011;61444;59.472;18.306;2023-07-28T01:13:22;4.43;;;2.70;;
11548;SDS011;61444;59.472;18.306;2023-07-28T01:15:31;4.13;;;2.40;;
11548;SDS011;61444;59.472;18.306;2023-07-28T01:17:41;6.23;;;2.60;;
11548;SDS011;61444;59.472;18.306;2023-07-28T01:19:51;6.93;;;2.70;;
11548;SDS011;61444;59.472;18.306;2023-07-28T01:22:04;7.00;;;2.70;;
11548;SDS011;61444;59.472;18.306;2023-07-28T01:24:15;5.07;;;2.60;;
11548;SDS011;61444;59.472;18.306;2023-07-28T01:26:41;3.73;;;2.43;;
11548;SDS011;61444;59.472;18.306;2023-07-28T01:28:50;2.60;;;2.40;;
11548;SDS011;61444;59.472;18.306;2023-07-28T01:31:01;5.10;;;2.57;;
11548;SDS011;61444;59.472;18.306;2023-07-28T01:33:10;3.67;;;2.63;;
11548;SDS011;61444;59.472;18.306;2023-07-28T01:35:19;4.40;;;2.83;;
11548;SDS011;61444;59.472;18.306;2023-07-28T01:37:29;3.83;;;2.40;;
11548;SDS011;61444;59.472;18.306;2023-07-28T01:39:38;3.53;;;2.33;;
11548;SDS011;61444;59.472;18.306;2023-07-28T01:41:49;4.97;;;2.53;;
11548;SDS011;61444;59.472;18.306;2023-07-28T01:43:58;4.70;;;2.63;;
11548;SDS011;61444;59.472;18.306;2023-07-28T01:46:07;3.50;;;2.30;;
11548;SDS011;61444;59.472;18.306;2023-07-28T01:48:15;5.07;;;2.50;;
11548;SDS011;61444;59.472;18.306;2023-07-28T01:50:25;4.57;;;2.50;;
11548;SDS011;61444;59.472;18.306;2023-07-28T01:52:34;3.03;;;2.20;;
11548;SDS011;61444;59.472;18.306;2023-07-28T01:54:42;5.23;;;2.30;;
11548;SDS011;61444;59.472;18.306;2023-07-28T01:56:53;3.47;;;2.37;;
11548;SDS011;61444;59.472;18.306;2023-07-28T01:59:02;3.97;;;2.30;;
11548;SDS011;61444;59.472;18.306;2023-07-28T02:01:12;4.30;;;2.30;;
11548;SDS011;61444;59.472;18.306;2023-07-28T02:03:21;3.00;;;2.50;;
11548;SDS011;61444;59.472;18.306;2023-07-28T02:05:30;4.03;;;2.20;;
11548;SDS011;61444;59.472;18.306;2023-07-28T02:07:40;2.90;;;2.37;;
11548;SDS011;61444;59.472;18.306;2023-07-28T02:09:48;3.20;;;2.20;;
11548;SDS011;61444;59.472;18.306;2023-07-28T02:11:58;3.53;;;2.30;;
11548;SDS011;61444;59.472;18.306;2023-07-28T02:14:07;2.47;;;2.13;;
11548;SDS011;61444;59.472;18.306;2023-07-28T02:16:16;3.63;;;2.57;;
11548;SDS011;61444;59.472;18.306;2023-07-28T02:18:25;5.13;;;2.50;;
11548;SDS011;61444;59.472;18.306;2023-07-28T02:20:34;5.00;;;2.67;;
11548;SDS011;61444;59.472;18.306;2023-07-28T02:22:44;4.30;;;2.80;;
11548;SDS011;61444;59.472;18.306;2023-07-28T02:24:53;4.63;;;2.57;;
11548;SDS011;61444;59.472;18.306;2023-07-28T02:27:04;4.23;;;2.33;;
11548;SDS011;61444;59.472;18.306;2023-07-28T02:29:13;3.30;;;2.60;;
11548;SDS011;61444;59.472;18.306;2023-07-28T02:31:22;3.70;;;2.63;;
11548;SDS011;61444;59.472;18.306;2023-07-28T02:33:31;5.57;;;2.73;;
11548;SDS011;61444;59.472;18.306;2023-07-28T02:35:43;5.57;;;2.80;;
11548;SDS011;61444;59.472;18.306;2023-07-28T02:37:53;7.47;;;2.87;;
11548;SDS011;61444;59.472;18.306;2023-07-28T02:40:03;6.00;;;2.77;;
11548;SDS011;61444;59.472;18.306;2023-07-28T02:42:13;3.80;;;2.90;;
11548;SDS011;61444;59.472;18.306;2023-07-28T02:44:22;4.97;;;2.97;;
11548;SDS011;61444;59.472;18.306;2023-07-28T02:46:35;5.53;;;3.13;;
11548;SDS011;61444;59.472;18.306;2023-07-28T02:48:45;5.03;;;3.40;;
11548;SDS011;61444;59.472;18.306;2023-07-28T02:50:53;6.30;;;2.77;;
11548;SDS011;61444;59.472;18.306;2023-07-28T02:53:03;6.53;;;2.83;;
11548;SDS011;61444;59.472;18.306;2023-07-28T02:55:12;3.53;;;2.60;;
11548;SDS011;61444;59.472;18.306;2023-07-28T02:57:22;6.00;;;2.47;;
11548;SDS011;61444;59.472;18.306;2023-07-28T02:59:32;5.60;;;2.43;;
11548;SDS011;61444;59.472;18.306;2023-07-28T03:01:41;4.17;;;2.43;;
11548;SDS011;61444;59.472;18.306;2023-07-28T03:03:50;7.03;;;2.70;;
11548;SDS011;61444;59.472;18.306;2023-07-28T03:05:58;5.63;;;2.47;;
11548;SDS011;61444;59.472;18.306;2023-07-28T03:08:12;4.77;;;2.60;;
11548;SDS011;61444;59.472;18.306;2023-07-28T03:10:21;4.70;;;2.67;;
11548;SDS011;61444;59.472;18.306;2023-07-28T03:12:31;3.13;;;2.27;;
11548;SDS011;61444;59.472;18.306;2023-07-28T03:14:40;3.20;;;2.27;;
11548;SDS011;61444;59.472;18.306;2023-07-28T03:16:50;7.27;;;2.77;;
11548;SDS011;61444;59.472;18.306;2023-07-28T03:18:59;3.30;;;2.57;;
11548;SDS011;61444;59.472;18.306;2023-07-28T03:21:08;8.97;;;2.80;;
11548;SDS011;61444;59.472;18.306;2023-07-28T03:23:17;4.60;;;2.50;;
11548;SDS011;61444;59.472;18.306;2023-07-28T03:25:25;3.83;;;2.43;;
11548;SDS011;61444;59.472;18.306;2023-07-28T03:27:35;2.90;;;2.37;;
11548;SDS011;61444;59.472;18.306;2023-07-28T03:29:44;2.77;;;2.27;;
11548;SDS011;61444;59.472;18.306;2023-07-28T03:31:53;4.53;;;2.37;;
11548;SDS011;61444;59.472;18.306;2023-07-28T03:34:02;4.07;;;2.77;;
11548;SDS011;61444;59.472;18.306;2023-07-28T03:36:13;4.43;;;2.87;;
11548;SDS011;61444;59.472;18.306;2023-07-28T03:38:22;4.50;;;2.60;;
11548;SDS011;61444;59.472;18.306;2023-07-28T03:40:32;3.73;;;2.70;;
11548;SDS011;61444;59.472;18.306;2023-07-28T03:42:45;5.43;;;3.00;;
11548;SDS011;61444;59.472;18.306;2023-07-28T03:44:54;3.87;;;2.90;;
11548;SDS011;61444;59.472;18.306;2023-07-28T03:47:02;5.20;;;3.33;;
11548;SDS011;61444;59.472;18.306;2023-07-28T03:49:10;3.87;;;2.80;;
11548;SDS011;61444;59.472;18.306;2023-07-28T03:51:19;6.57;;;2.70;;
11548;SDS011;61444;59.472;18.306;2023-07-28T03:53:28;4.23;;;2.40;;
11548;SDS011;61444;59.472;18.306;2023-07-28T03:55:37;3.87;;;2.10;;
11548;SDS011;61444;59.472;18.306;2023-07-28T03:57:48;2.67;;;2.40;;
11548;SDS011;61444;59.472;18.306;2023-07-28T03:59:57;3.43;;;2.43;;
11548;SDS011;61444;59.472;18.306;2023-07-28T04:02:06;6.27;;;2.60;;
11548;SDS011;61444;59.472;18.306;2023-07-28T04:04:15;3.37;;;2.20;;
11548;SDS011;61444;59.472;18.306;2023-07-28T04:06:38;5.70;;;2.60;;
11548;SDS011;61444;59.472;18.306;2023-07-28T04:08:50;5.33;;;2.53;;
11548;SDS011;61444;59.472;18.306;2023-07-28T04:10:59;3.57;;;2.47;;
11548;SDS011;61444;59.472;18.306;2023-07-28T04:13:09;4.57;;;2.87;;
11548;SDS011;61444;59.472;18.306;2023-07-28T04:15:18;3.40;;;2.60;;
11548;SDS011;61444;59.472;18.306;2023-07-28T04:17:27;5.13;;;2.67;;
11548;SDS011;61444;59.472;18.306;2023-07-28T04:19:39;5.53;;;2.73;;
11548;SDS011;61444;59.472;18.306;2023-07-28T04:21:47;3.57;;;2.73;;
11548;SDS011;61444;59.472;18.306;2023-07-28T04:23:56;3.63;;;2.70;;
11548;SDS011;61444;59.472;18.306;2023-07-28T04:26:05;3.60;;;2.70;;
11548;SDS011;61444;59.472;18.306;2023-07-28T04:28:15;4.30;;;2.70;;
11548;SDS011;61444;59.472;18.306;2023-07-28T04:30:26;4.13;;;3.03;;
11548;SDS011;61444;59.472;18.306;2023-07-28T04:32:35;3.47;;;2.53;;
11548;SDS011;61444;59.472;18.306;2023-07-28T04:34:44;5.87;;;2.80;;
11548;SDS011;61444;59.472;18.306;2023-07-28T04:36:53;4.47;;;2.80;;
11548;SDS011;61444;59.472;18.306;2023-07-28T04:39:02;3.10;;;2.60;;
11548;SDS011;61444;59.472;18.306;2023-07-28T04:41:11;4.77;;;2.87;;
11548;SDS011;61444;59.472;18.306;2023-07-28T04:43:21;6.73;;;2.73;;
11548;SDS011;61444;59.472;18.306;2023-07-28T04:45:30;3.50;;;2.80;;
11548;SDS011;61444;59.472;18.306;2023-07-28T04:47:39;3.57;;;2.57;;
11548;SDS011;61444;59.472;18.306;2023-07-28T04:49:47;3.93;;;2.70;;
11548;SDS011;61444;59.472;18.306;2023-07-28T04:51:56;3.40;;;3.00;;
11548;SDS011;61444;59.472;18.306;2023-07-28T04:54:04;5.00;;;2.67;;
11548;SDS011;61444;59.472;18.306;2023-07-28T04:56:13;4.03;;;2.90;;
11548;SDS011;61444;59.472;18.306;2023-07-28T04:58:37;3.67;;;3.00;;
11548;SDS011;61444;59.472;18.306;2023-07-28T05:00:45;5.03;;;2.70;;
11548;SDS011;61444;59.472;18.306;2023-07-28T05:02:56;2.60;;;2.40;;
11548;SDS011;61444;59.472;18.306;2023-07-28T05:05:06;2.87;;;2.30;;
11548;SDS011;61444;59.472;18.306;2023-07-28T05:07:15;2.53;;;2.10;;
11548;SDS011;61444;59.472;18.306;2023-07-28T05:09:24;3.80;;;2.70;;
11548;SDS011;61444;59.472;18.306;2023-07-28T05:11:34;2.93;;;2.60;;
11548;SDS011;61444;59.472;18.306;2023-07-28T05:13:45;3.90;;;2.77;;
11548;SDS011;61444;59.472;18.306;2023-07-28T05:15:54;2.70;;;2.50;;
11548;SDS011;61444;59.472;18.306;2023-07-28T05:18:05;3.33;;;2.80;;
11548;SDS011;61444;59.472;18.306;2023-07-28T05:20:14;3.07;;;2.63;;
11548;SDS011;61444;59.472;18.306;2023-07-28T05:22:23;2.83;;;2.60;;
11548;SDS011;61444;59.472;18.306;2023-07-28T05:24:32;3.03;;;2.67;;
11548;SDS011;61444;59.472;18.306;2023-07-28T05:26:41;3.10;;;2.80;;
11548;SDS011;61444;59.472;18.306;2023-07-28T05:28:53;3.00;;;2.80;;
11548;SDS011;61444;59.472;18.306;2023-07-28T05:31:05;4.50;;;3.00;;
11548;SDS011;61444;59.472;18.306;2023-07-28T05:33:14;3.60;;;2.97;;
11548;SDS011;61444;59.472;18.306;2023-07-28T05:35:23;4.13;;;3.17;;
11548;SDS011;61444;59.472;18.306;2023-07-28T05:37:32;3.53;;;2.73;;
11548;SDS011;61444;59.472;18.306;2023-07-28T05:39:41;2.70;;;2.50;;
11548;SDS011;61444;59.472;18.306;2023-07-28T05:41:51;3.30;;;3.00;;
11548;SDS011;61444;59.472;18.306;2023-07-28T05:44:01;3.13;;;2.80;;
11548;SDS011;61444;59.472;18.306;2023-07-28T05:46:10;4.53;;;2.90;;
11548;SDS011;61444;59.472;18.306;2023-07-28T05:48:20;3.77;;;2.53;;
11548;SDS011;61444;59.472;18.306;2023-07-28T05:50:29;3.00;;;2.80;;
11548;SDS011;61444;59.472;18.306;2023-07-28T05:52:38;3.33;;;2.80;;
11548;SDS011;61444;59.472;18.306;2023-07-28T05:54:46;4.87;;;2.77;;
11548;SDS011;61444;59.472;18.306;2023-07-28T05:56:55;3.10;;;2.80;;
11548;SDS011;61444;59.472;18.306;2023-07-28T05:59:06;2.90;;;2.57;;
11548;SDS011;61444;59.472;18.306;2023-07-28T06:01:15;2.80;;;2.60;;
11548;SDS011;61444;59.472;18.306;2023-07-28T06:03:24;2.87;;;2.67;;
11548;SDS011;61444;59.472;18.306;2023-07-28T06:05:35;2.77;;;2.50;;
11548;SDS011;61444;59.472;18.306;2023-07-28T06:07:44;3.07;;;2.77;;
11548;SDS011;61444;59.472;18.306;2023-07-28T06:09:53;2.70;;;2.50;;
11548;SDS011;61444;59.472;18.306;2023-07-28T06:12:02;3.00;;;2.80;;
11548;SDS011;61444;59.472;18.306;2023-07-28T06:14:12;2.90;;;2.70;;
11548;SDS011;61444;59.472;18.306;2023-07-28T06:16:21;2.90;;;2.70;;
11548;SDS011;61444;59.472;18.306;2023-07-28T06:18:31;2.87;;;2.60;;
11548;SDS011;61444;59.472;18.306;2023-07-28T06:20:44;2.97;;;2.77;;
11548;SDS011;61444;59.472;18.306;2023-07-28T06:22:53;3.30;;;3.00;;
11548;SDS011;61444;59.472;18.306;2023-07-28T06:25:01;2.83;;;2.60;;
11548;SDS011;61444;59.472;18.306;2023-07-28T06:27:10;3.97;;;2.90;;
11548;SDS011;61444;59.472;18.306;2023-07-28T06:29:22;2.60;;;2.40;;
11548;SDS011;61444;59.472;18.306;2023-07-28T06:31:33;3.13;;;2.50;;
11548;SDS011;61444;59.472;18.306;2023-07-28T06:33:42;2.40;;;2.17;;
11548;SDS011;61444;59.472;18.306;2023-07-28T06:35:54;3.40;;;2.33;;
11548;SDS011;61444;59.472;18.306;2023-07-28T06:38:03;2.03;;;1.87;;
11548;SDS011;61444;59.472;18.306;2023-07-28T06:40:12;2.40;;;2.13;;
11548;SDS011;61444;59.472;18.306;2023-07-28T06:42:21;2.37;;;2.23;;
11548;SDS011;61444;59.472;18.306;2023-07-28T06:44:32;2.60;;;2.37;;
11548;SDS011;61444;59.472;18.306;2023-07-28T06:46:41;2.63;;;2.20;;
11548;SDS011;61444;59.472;18.306;2023-07-28T06:48:51;2.33;;;2.13;;
11548;SDS011;61444;59.472;18.306;2023-07-28T06:51:00;2.63;;;2.43;;
11548;SDS011;61444;59.472;18.306;2023-07-28T06:53:09;2.50;;;2.27;;
11548;SDS011;61444;59.472;18.306;2023-07-28T06:55:18;2.60;;;2.50;;
11548;SDS011;61444;59.472;18.306;2023-07-28T06:57:30;2.73;;;2.53;;
11548;SDS011;61444;59.472;18.306;2023-07-28T06:59:40;2.67;;;2.50;;
11548;SDS011;61444;59.472;18.306;2023-07-28T07:01:49;2.47;;;2.37;;
11548;SDS011;61444;59.472;18.306;2023-07-28T07:03:58;2.50;;;2.30;;
11548;SDS011;61444;59.472;18.306;2023-07-28T07:06:07;3.00;;;2.80;;
11548;SDS011;61444;59.472;18.306;2023-07-28T07:08:16;3.40;;;2.50;;
11548;SDS011;61444;59.472;18.306;2023-07-28T07:10:24;2.70;;;2.40;;
11548;SDS011;61444;59.472;18.306;2023-07-28T07:12:35;2.40;;;2.30;;
11548;SDS011;61444;59.472;18.306;2023-07-28T07:14:46;2.60;;;2.40;;
11548;SDS011;61444;59.472;18.306;2023-07-28T07:16:55;2.27;;;2.17;;
11548;SDS011;61444;59.472;18.306;2023-07-28T07:19:04;3.00;;;2.80;;
11548;SDS011;61444;59.472;18.306;2023-07-28T07:21:23;3.13;;;2.93;;
11548;SDS011;61444;59.472;18.306;2023-07-28T07:23:32;2.90;;;2.70;;
11548;SDS011;61444;59.472;18.306;2023-07-28T07:25:41;2.87;;;2.60;;
11548;SDS011;61444;59.472;18.306;2023-07-28T07:27:50;3.03;;;2.73;;
11548;SDS011;61444;59.472;18.306;2023-07-28T07:30:00;2.60;;;2.40;;
11548;SDS011;61444;59.472;18.306;2023-07-28T07:32:10;2.60;;;2.40;;
11548;SDS011;61444;59.472;18.306;2023-07-28T07:34:19;2.57;;;2.47;;
11548;SDS011;61444;59.472;18.306;2023-07-28T07:36:28;2.83;;;2.60;;
11548;SDS011;61444;59.472;18.306;2023-07-28T07:38:37;3.37;;;3.07;;
11548;SDS011;61444;59.472;18.306;2023-07-28T07:40:53;3.03;;;2.83;;
11548;SDS011;61444;59.472;18.306;2023-07-28T07:43:01;3.23;;;2.93;;
11548;SDS011;61444;59.472;18.306;2023-07-28T07:45:12;3.13;;;2.93;;
11548;SDS011;61444;59.472;18.306;2023-07-28T07:47:21;3.37;;;3.17;;
11548;SDS011;61444;59.472;18.306;2023-07-28T07:49:30;3.43;;;3.23;;
11548;SDS011;61444;59.472;18.306;2023-07-28T07:51:40;3.57;;;3.33;;
11548;SDS011;61444;59.472;18.306;2023-07-28T07:53:49;3.17;;;2.87;;
11548;SDS011;61444;59.472;18.306;2023-07-28T07:55:57;2.80;;;2.67;;
11548;SDS011;61444;59.472;18.306;2023-07-28T07:58:08;2.90;;;2.80;;
11548;SDS011;61444;59.472;18.306;2023-07-28T08:00:20;3.07;;;2.87;;
11548;SDS011;61444;59.472;18.306;2023-07-28T08:02:29;3.00;;;2.87;;
11548;SDS011;61444;59.472;18.306;2023-07-28T08:04:40;2.80;;;2.70;;
11548;SDS011;61444;59.472;18.306;2023-07-28T08:06:49;3.20;;;3.00;;
11548;SDS011;61444;59.472;18.306;2023-07-28T08:08:58;4.73;;;3.30;;
11548;SDS011;61444;59.472;18.306;2023-07-28T08:11:09;3.27;;;3.07;;
11548;SDS011;61444;59.472;18.306;2023-07-28T08:13:18;4.43;;;3.20;;
11548;SDS011;61444;59.472;18.306;2023-07-28T08:15:28;3.03;;;2.93;;
11548;SDS011;61444;59.472;18.306;2023-07-28T08:17:37;2.90;;;2.80;;
11548;SDS011;61444;59.472;18.306;2023-07-28T08:19:45;3.27;;;3.17;;
11548;SDS011;61444;59.472;18.306;2023-07-28T08:21:54;3.60;;;3.40;;
11548;SDS011;61444;59.472;18.306;2023-07-28T08:24:02;3.03;;;2.83;;
11548;SDS011;61444;59.472;18.306;2023-07-28T08:26:11;3.33;;;3.00;;
11548;SDS011;61444;59.472;18.306;2023-07-28T08:28:23;3.40;;;3.10;;
11548;SDS011;61444;59.472;18.306;2023-07-28T08:30:33;3.87;;;3.60;;
11548;SDS011;61444;59.472;18.306;2023-07-28T08:32:42;3.50;;;3.30;;
11548;SDS011;61444;59.472;18.306;2023-07-28T08:34:51;3.70;;;3.50;;
11548;SDS011;61444;59.472;18.306;2023-07-28T08:37:01;3.33;;;3.10;;
11548;SDS011;61444;59.472;18.306;2023-07-28T08:39:09;3.40;;;3.13;;
11548;SDS011;61444;59.472;18.306;2023-07-28T08:41:19;3.50;;;3.20;;
11548;SDS011;61444;59.472;18.306;2023-07-28T08:43:27;3.50;;;3.30;;
11548;SDS011;61444;59.472;18.306;2023-07-28T08:45:39;3.27;;;3.13;;
11548;SDS011;61444;59.472;18.306;2023-07-28T08:47:48;3.73;;;3.10;;
11548;SDS011;61444;59.472;18.306;2023-07-28T08:49:58;3.30;;;3.10;;
11548;SDS011;61444;59.472;18.306;2023-07-28T08:52:07;3.30;;;3.10;;
11548;SDS011;61444;59.472;18.306;2023-07-28T08:54:18;4.27;;;3.20;;
11548;SDS011;61444;59.472;18.306;2023-07-28T08:56:27;2.90;;;2.80;;
11548;SDS011;61444;59.472;18.306;2023-07-28T08:58:36;2.93;;;2.73;;
11548;SDS011;61444;59.472;18.306;2023-07-28T09:00:46;3.20;;;3.10;;
11548;SDS011;61444;59.472;18.306;2023-07-28T09:02:56;3.20;;;3.00;;
11548;SDS011;61444;59.472;18.306;2023-07-28T09:05:05;2.93;;;2.80;;
11548;SDS011;61444;59.472;18.306;2023-07-28T09:07:14;3.20;;;2.90;;
11548;SDS011;61444;59.472;18.306;2023-07-28T09:09:23;3.77;;;3.43;;
11548;SDS011;61444;59.472;18.306;2023-07-28T09:11:38;3.93;;;3.20;;
11548;SDS011;61444;59.472;18.306;2023-07-28T09:13:53;3.43;;;3.23;;
11548;SDS011;61444;59.472;18.306;2023-07-28T09:16:04;3.10;;;3.00;;
11548;SDS011;61444;59.472;18.306;2023-07-28T09:18:14;3.97;;;2.90;;
11548;SDS011;61444;59.472;18.306;2023-07-28T09:20:23;3.07;;;2.90;;
11548;SDS011;61444;59.472;18.306;2023-07-28T09:22:32;3.13;;;2.87;;
11548;SDS011;61444;59.472;18.306;2023-07-28T09:24:41;2.60;;;2.50;;
11548;SDS011;61444;59.472;18.306;2023-07-28T09:26:50;2.83;;;2.63;;
11548;SDS011;61444;59.472;18.306;2023-07-28T09:28:59;2.57;;;2.47;;
11548;SDS011;61444;59.472;18.306;2023-07-28T09:31:10;2.80;;;2.60;;
11548;SDS011;61444;59.472;18.306;2023-07-28T09:33:30;3.30;;;2.70;;
11548;SDS011;61444;59.472;18.306;2023-07-28T09:35:46;3.40;;;2.30;;
11548;SDS011;61444;59.472;18.306;2023-07-28T09:37:55;2.30;;;2.17;;
11548;SDS011;61444;59.472;18.306;2023-07-28T09:40:06;2.37;;;2.27;;
11548;SDS011;61444;59.472;18.306;2023-07-28T09:42:18;2.43;;;2.30;;
11548;SDS011;61444;59.472;18.306;2023-07-28T09:44:27;3.00;;;2.80;;
11548;SDS011;61444;59.472;18.306;2023-07-28T09:46:43;2.43;;;2.20;;
11548;SDS011;61444;59.472;18.306;2023-07-28T09:48:58;2.33;;;2.13;;
11548;SDS011;61444;59.472;18.306;2023-07-28T09:51:08;2.33;;;2.23;;
11548;SDS011;61444;59.472;18.306;2023-07-28T09:53:20;2.23;;;2.13;;
11548;SDS011;61444;59.472;18.306;2023-07-28T09:55:31;4.40;;;1.77;;
11548;SDS011;61444;59.472;18.306;2023-07-28T09:57:43;4.40;;;2.33;;
11548;SDS011;61444;59.472;18.306;2023-07-28T09:59:54;2.07;;;1.87;;
11548;SDS011;61444;59.472;18.306;2023-07-28T10:02:06;3.10;;;1.60;;
11548;SDS011;61444;59.472;18.306;2023-07-28T10:04:15;2.37;;;1.40;;
11548;SDS011;61444;59.472;18.306;2023-07-28T10:06:24;1.53;;;1.40;;
11548;SDS011;61444;59.472;18.306;2023-07-28T10:08:34;2.83;;;1.70;;
11548;SDS011;61444;59.472;18.306;2023-07-28T10:10:44;1.53;;;1.43;;
11548;SDS011;61444;59.472;18.306;2023-07-28T10:12:54;2.53;;;1.60;;
11548;SDS011;61444;59.472;18.306;2023-07-28T10:15:03;1.97;;;1.60;;
11548;SDS011;61444;59.472;18.306;2023-07-28T10:17:16;2.23;;;1.43;;
11548;SDS011;61444;59.472;18.306;2023-07-28T10:19:25;1.70;;;1.53;;
11548;SDS011;61444;59.472;18.306;2023-07-28T10:21:39;3.00;;;1.50;;
11548;SDS011;61444;59.472;18.306;2023-07-28T10:23:53;2.63;;;1.43;;
11548;SDS011;61444;59.472;18.306;2023-07-28T10:26:04;2.60;;;1.40;;
11548;SDS011;61444;59.472;18.306;2023-07-28T10:28:25;2.47;;;1.70;;
11548;SDS011;61444;59.472;18.306;2023-07-28T10:30:36;2.57;;;1.43;;
11548;SDS011;61444;59.472;18.306;2023-07-28T10:32:48;2.10;;;1.43;;
11548;SDS011;61444;59.472;18.306;2023-07-28T10:35:01;3.73;;;1.43;;
11548;SDS011;61444;59.472;18.306;2023-07-28T10:37:11;1.73;;;1.03;;
11548;SDS011;61444;59.472;18.306;2023-07-28T10:39:23;1.40;;;1.30;;
11548;SDS011;61444;59.472;18.306;2023-07-28T10:41:33;2.43;;;1.47;;
11548;SDS011;61444;59.472;18.306;2023-07-28T10:43:43;2.97;;;1.63;;
11548;SDS011;61444;59.472;18.306;2023-07-28T10:45:51;2.33;;;1.43;;
11548;SDS011;61444;59.472;18.306;2023-07-28T10:48:01;1.77;;;1.67;;
11548;SDS011;61444;59.472;18.306;2023-07-28T10:50:10;1.77;;;1.67;;
11548;SDS011;61444;59.472;18.306;2023-07-28T10:52:21;1.70;;;1.57;;
11548;SDS011;61444;59.472;18.306;2023-07-28T10:54:34;1.53;;;1.43;;
11548;SDS011;61444;59.472;18.306;2023-07-28T10:56:43;1.60;;;1.50;;
11548;SDS011;61444;59.472;18.306;2023-07-28T10:58:56;1.43;;;1.33;;
11548;SDS011;61444;59.472;18.306;2023-07-28T11:01:04;2.40;;;1.67;;
11548;SDS011;61444;59.472;18.306;2023-07-28T11:03:16;2.60;;;1.77;;
11548;SDS011;61444;59.472;18.306;2023-07-28T11:05:27;1.80;;;1.70;;
11548;SDS011;61444;59.472;18.306;2023-07-28T11:07:36;1.97;;;1.80;;
11548;SDS011;61444;59.472;18.306;2023-07-28T11:09:45;2.60;;;2.37;;
11548;SDS011;61444;59.472;18.306;2023-07-28T11:11:53;2.33;;;2.13;;
11548;SDS011;61444;59.472;18.306;2023-07-28T11:14:02;2.40;;;2.30;;
11548;SDS011;61444;59.472;18.306;2023-07-28T11:16:13;2.27;;;2.07;;
11548;SDS011;61444;59.472;18.306;2023-07-28T11:18:23;2.20;;;1.93;;
11548;SDS011;61444;59.472;18.306;2023-07-28T11:20:34;2.17;;;2.07;;
11548;SDS011;61444;59.472;18.306;2023-07-28T11:22:43;2.33;;;2.10;;
11548;SDS011;61444;59.472;18.306;2023-07-28T11:24:52;2.20;;;2.10;;
11548;SDS011;61444;59.472;18.306;2023-07-28T11:27:00;2.23;;;2.13;;
11548;SDS011;61444;59.472;18.306;2023-07-28T11:29:10;2.10;;;2.00;;
11548;SDS011;61444;59.472;18.306;2023-07-28T11:31:22;2.17;;;2.07;;
11548;SDS011;61444;59.472;18.306;2023-07-28T11:33:34;2.13;;;2.03;;
11548;SDS011;61444;59.472;18.306;2023-07-28T11:35:44;2.27;;;1.93;;
11548;SDS011;61444;59.472;18.306;2023-07-28T11:37:53;2.60;;;2.40;;
11548;SDS011;61444;59.472;18.306;2023-07-28T11:40:04;2.47;;;2.27;;
11548;SDS011;61444;59.472;18.306;2023-07-28T11:42:15;2.53;;;2.33;;
11548;SDS011;61444;59.472;18.306;2023-07-28T11:44:25;2.10;;;2.00;;
11548;SDS011;61444;59.472;18.306;2023-07-28T11:46:34;2.50;;;2.10;;
11548;SDS011;61444;59.472;18.306;2023-07-28T11:48:45;2.10;;;1.97;;
11548;SDS011;61444;59.472;18.306;2023-07-28T11:50:54;2.20;;;2.10;;
11548;SDS011;61444;59.472;18.306;2023-07-28T11:53:05;2.23;;;2.07;;
11548;SDS011;61444;59.472;18.306;2023-07-28T11:55:14;2.00;;;1.90;;
11548;SDS011;61444;59.472;18.306;2023-07-28T11:57:24;2.27;;;2.17;;
11548;SDS011;61444;59.472;18.306;2023-07-28T11:59:34;2.20;;;2.10;;
11548;SDS011;61444;59.472;18.306;2023-07-28T12:01:53;2.47;;;2.27;;
11548;SDS011;61444;59.472;18.306;2023-07-28T12:09:08;2.20;;;2.10;;
11548;SDS011;61444;59.472;18.306;2023-07-28T12:11:20;2.13;;;2.03;;
11548;SDS011;61444;59.472;18.306;2023-07-28T12:13:50;2.20;;;2.10;;
11548;SDS011;61444;59.472;18.306;2023-07-28T12:16:02;2.33;;;2.23;;
11548;SDS011;61444;59.472;18.306;2023-07-28T12:18:30;2.50;;;2.30;;
11548;SDS011;61444;59.472;18.306;2023-07-28T12:20:42;2.57;;;2.40;;
11548;SDS011;61444;59.472;18.306;2023-07-28T12:22:53;2.90;;;2.80;;
11548;SDS011;61444;59.472;18.306;2023-07-28T12:25:24;2.80;;;2.70;;
11548;SDS011;61444;59.472;18.306;2023-07-28T12:27:34;3.13;;;2.93;;
11548;SDS011;61444;59.472;18.306;2023-07-28T12:29:46;3.33;;;3.23;;
11548;SDS011;61444;59.472;18.306;2023-07-28T12:32:07;3.23;;;3.07;;
11548;SDS011;61444;59.472;18.306;2023-07-28T12:34:36;3.17;;;2.97;;
11548;SDS011;61444;59.472;18.306;2023-07-28T12:36:49;3.33;;;3.03;;
11548;SDS011;61444;59.472;18.306;2023-07-28T12:39:00;2.77;;;2.60;;
11548;SDS011;61444;59.472;18.306;2023-07-28T12:41:31;3.07;;;2.93;;
11548;SDS011;61444;59.472;18.306;2023-07-28T12:43:43;3.73;;;3.53;;
11548;SDS011;61444;59.472;18.306;2023-07-28T12:45:55;3.53;;;3.23;;
11548;SDS011;61444;59.472;18.306;2023-07-28T12:48:07;3.33;;;3.13;;
11548;SDS011;61444;59.472;18.306;2023-07-28T12:50:26;3.57;;;3.27;;
11548;SDS011;61444;59.472;18.306;2023-07-28T12:52:45;3.33;;;3.13;;
11548;SDS011;61444;59.472;18.306;2023-07-28T12:54:57;3.37;;;3.17;;
11548;SDS011;61444;59.472;18.306;2023-07-28T12:57:10;3.40;;;3.20;;
11548;SDS011;61444;59.472;18.306;2023-07-28T12:59:19;3.60;;;3.40;;